createdAt,value
2019-01-20T00:04:40.679Z,21.17
2019-01-20T00:09:45.711Z,22.13
2019-01-20T00:14:50.727Z,22.53
2019-01-20T00:19:55.795Z,22.07
2019-01-20T00:25:00.809Z,21.43
2019-01-20T00:30:07.858Z,20.23
2019-01-20T00:35:12.480Z,21.57
2019-01-20T00:40:17.920Z,21.43
2019-01-20T00:45:22.950Z,26.43
2019-01-20T00:50:27.959Z,24.73
2019-01-20T00:55:33.008Z,25.03
2019-01-20T01:00:38.028Z,23.67
2019-01-20T01:05:43.040Z,26.23
2019-01-20T01:10:48.090Z,25.23
2019-01-20T01:15:53.096Z,25.57
2019-01-20T01:20:58.168Z,26.40
2019-01-20T01:26:03.204Z,25.43
2019-01-20T01:31:08.237Z,27.03
2019-01-20T01:36:13.294Z,28.07
2019-01-20T01:41:18.323Z,27.93
2019-01-20T01:46:23.344Z,26.90
2019-01-20T01:51:28.364Z,29.93
2019-01-20T01:56:33.391Z,28.27
2019-01-20T02:01:38.425Z,30.83
2019-01-20T02:06:43.486Z,31.17
2019-01-20T02:11:48.470Z,32.43
2019-01-20T02:16:53.532Z,30.53
2019-01-20T02:21:59.009Z,34.67
2019-01-20T02:27:04.289Z,32.80
2019-01-20T02:32:09.324Z,32.23
2019-01-20T02:37:14.336Z,33.23
2019-01-20T02:42:19.424Z,36.93
2019-01-20T02:47:26.016Z,33.83
2019-01-20T02:52:31.092Z,35.13
2019-01-20T02:57:36.386Z,31.67
2019-01-20T03:02:41.412Z,33.93
2019-01-20T03:07:46.540Z,34.53
2019-01-20T03:12:51.572Z,32.17
2019-01-20T03:17:56.599Z,32.90
2019-01-20T03:23:01.649Z,33.20
2019-01-20T03:28:06.698Z,36.17
2019-01-20T03:33:11.751Z,36.37
2019-01-20T03:38:16.979Z,37.80
2019-01-20T03:43:22.001Z,36.80
2019-01-20T03:48:27.022Z,38.60
2019-01-20T03:53:32.044Z,37.33
2019-01-20T03:58:37.171Z,36.33
2019-01-20T04:03:42.186Z,38.73
2019-01-20T04:08:47.201Z,38.17
2019-01-20T04:13:52.242Z,36.60
2019-01-20T04:18:57.271Z,40.03
2019-01-20T04:24:02.323Z,42.43
2019-01-20T04:29:07.340Z,41.33
2019-01-20T04:34:12.364Z,41.53
2019-01-20T04:39:17.372Z,41.27
2019-01-20T04:44:22.392Z,43.33
2019-01-20T04:49:27.403Z,42.70
2019-01-20T04:54:32.425Z,43.60
2019-01-20T04:59:37.456Z,45.10
2019-01-20T05:04:42.469Z,43.53
2019-01-20T05:09:47.492Z,42.60
2019-01-20T05:14:52.524Z,42.80
2019-01-20T05:19:57.575Z,41.20
2019-01-20T05:25:02.655Z,45.80
2019-01-20T05:30:10.951Z,43.83
2019-01-20T05:35:16.284Z,42.47
2019-01-20T05:40:21.826Z,42.97
2019-01-20T05:45:26.985Z,42.83
2019-01-20T05:50:31.996Z,43.53
2019-01-20T05:55:37.025Z,45.60
2019-01-20T06:00:42.056Z,42.80
2019-01-20T06:05:47.131Z,43.00
2019-01-20T06:10:52.156Z,43.63
2019-01-20T06:15:57.199Z,44.70
2019-01-20T06:21:02.203Z,45.83
2019-01-20T06:26:07.285Z,45.20
2019-01-20T06:31:12.307Z,47.07
2019-01-20T06:36:17.335Z,45.83
2019-01-20T06:41:22.356Z,45.30
2019-01-20T06:46:27.387Z,46.03
2019-01-20T06:51:32.413Z,48.03
2019-01-20T06:56:37.419Z,48.73
2019-01-20T07:01:42.452Z,46.43
2019-01-20T07:06:47.473Z,48.07
2019-01-20T07:11:52.500Z,46.80
2019-01-20T07:16:57.504Z,42.90
2019-01-20T07:22:02.583Z,47.07
2019-01-20T07:27:07.600Z,46.13
2019-01-20T07:32:12.874Z,48.30
2019-01-20T07:37:19.234Z,49.27
2019-01-20T07:42:24.363Z,50.23
2019-01-20T07:47:29.657Z,48.07
2019-01-20T07:52:34.668Z,48.87
2019-01-20T07:57:39.780Z,45.87
2019-01-20T08:02:44.826Z,50.07
2019-01-20T08:07:50.009Z,46.37
2019-01-20T08:12:55.340Z,50.43
2019-01-20T08:18:00.593Z,46.70
2019-01-20T08:23:05.649Z,47.30
2019-01-20T08:28:10.671Z,46.63
2019-01-20T08:33:15.683Z,47.80
2019-01-20T08:38:20.729Z,45.67
2019-01-20T08:43:31.698Z,49.17
2019-01-20T08:48:32.829Z,51.33
2019-01-20T08:53:37.832Z,46.37
2019-01-20T08:58:42.860Z,44.87
2019-01-20T09:03:47.876Z,46.83
2019-01-20T09:08:52.891Z,44.00
2019-01-20T09:13:57.912Z,47.43
2019-01-20T09:19:02.932Z,47.57
2019-01-20T09:24:08.000Z,48.83
2019-01-20T09:29:13.028Z,50.40
2019-01-20T09:34:18.078Z,51.53
2019-01-20T09:39:23.100Z,53.93
2019-01-20T09:44:28.122Z,49.93
2019-01-20T09:49:33.150Z,51.37
2019-01-20T09:54:38.164Z,47.97
2019-01-20T09:59:43.179Z,47.90
2019-01-20T10:04:48.208Z,48.30
2019-01-20T10:09:53.234Z,49.40
2019-01-20T10:14:58.641Z,47.93
2019-01-20T10:20:05.337Z,45.90
2019-01-20T10:25:15.026Z,46.93
2019-01-20T10:30:24.062Z,53.33
2019-01-20T10:35:38.304Z,59.23
2019-01-20T10:40:43.316Z,60.40
2019-01-20T10:45:48.327Z,65.77
2019-01-20T10:50:53.351Z,66.90
2019-01-20T10:55:58.463Z,66.47
2019-01-20T11:01:03.498Z,59.67
2019-01-20T11:06:08.752Z,53.50
2019-01-20T11:11:13.772Z,51.87
2019-01-20T11:16:18.780Z,50.77
2019-01-20T11:21:23.805Z,51.17
2019-01-20T11:26:29.156Z,56.37
2019-01-20T11:31:34.201Z,61.60
2019-01-20T11:36:39.216Z,55.53
2019-01-20T11:41:44.326Z,50.53
2019-01-20T11:46:49.295Z,45.43
2019-01-20T11:51:54.528Z,45.97
2019-01-20T11:56:59.541Z,47.30
2019-01-20T12:02:05.168Z,44.13
2019-01-20T12:07:10.424Z,40.13
2019-01-20T12:12:15.422Z,38.23
2019-01-20T12:17:20.549Z,35.90
2019-01-20T12:22:25.551Z,36.10
2019-01-20T12:27:42.486Z,39.67
2019-01-20T12:32:47.557Z,35.83
2019-01-20T12:37:52.742Z,34.97
2019-01-20T12:42:57.748Z,39.70
2019-01-20T12:48:02.872Z,44.53
2019-01-20T12:53:07.907Z,42.47
2019-01-20T12:58:13.338Z,48.40
2019-01-20T13:03:18.337Z,63.97
2019-01-20T13:08:23.352Z,43.40
2019-01-20T13:13:28.356Z,45.37
2019-01-20T13:18:33.368Z,56.23
2019-01-20T13:23:38.372Z,73.03
2019-01-20T13:28:43.415Z,67.20
2019-01-20T13:33:48.427Z,66.03
2019-01-20T13:38:53.463Z,67.63
2019-01-20T13:43:59.535Z,59.63
2019-01-20T13:49:04.734Z,62.23
2019-01-20T13:54:09.726Z,64.67
2019-01-20T13:59:14.743Z,55.13
2019-01-20T14:04:19.807Z,49.37
2019-01-20T14:09:24.808Z,49.23
2019-01-20T14:14:29.832Z,52.53
2019-01-20T14:19:34.869Z,47.77
2019-01-20T14:24:40.092Z,45.80
2019-01-20T14:29:45.164Z,47.37
2019-01-20T14:34:50.924Z,46.70
2019-01-20T14:39:55.933Z,51.50
2019-01-20T14:45:01.538Z,47.27
2019-01-20T14:50:09.297Z,41.37
2019-01-20T14:55:14.762Z,38.67
2019-01-20T15:00:25.980Z,31.33
2019-01-20T15:05:32.747Z,39.07
2019-01-20T15:10:37.754Z,29.90
2019-01-20T15:15:42.734Z,28.27
2019-01-20T15:20:47.709Z,39.97
2019-01-20T15:25:53.022Z,29.00
2019-01-20T15:30:58.011Z,27.33
2019-01-20T15:36:02.983Z,32.30
2019-01-20T15:41:08.090Z,30.03
2019-01-20T15:46:13.038Z,30.50
2019-01-20T15:51:18.007Z,32.70
2019-01-20T15:56:22.976Z,38.70
2019-01-20T16:01:27.937Z,38.87
2019-01-20T16:06:32.896Z,37.23
2019-01-20T16:11:37.969Z,45.17
2019-01-20T16:16:43.235Z,42.40
2019-01-20T16:21:48.205Z,49.13
2019-01-20T16:26:53.443Z,39.10
2019-01-20T16:31:58.409Z,36.33
2019-01-20T16:37:03.430Z,46.67
2019-01-20T16:42:08.391Z,39.17
2019-01-20T16:47:13.426Z,57.93
2019-01-20T16:52:18.424Z,38.37
2019-01-20T16:57:23.669Z,37.80
2019-01-20T17:02:28.657Z,39.80
2019-01-20T17:07:33.744Z,37.53
2019-01-20T17:12:38.704Z,38.87
2019-01-20T17:17:43.902Z,36.50
2019-01-20T17:22:49.825Z,36.83
2019-01-20T17:27:54.916Z,36.40
2019-01-20T17:33:01.376Z,38.20
2019-01-20T17:38:27.004Z,38.77
2019-01-20T17:43:31.980Z,40.90
2019-01-20T17:48:37.008Z,39.23
2019-01-20T17:53:41.995Z,42.17
2019-01-20T17:58:47.003Z,42.40
2019-01-20T18:03:51.995Z,40.67
2019-01-20T18:08:56.990Z,47.77
2019-01-20T18:14:01.960Z,48.47
2019-01-20T18:19:06.947Z,49.93
2019-01-20T18:24:11.984Z,47.37
2019-01-20T18:29:17.024Z,44.13
2019-01-20T18:34:22.009Z,43.20
2019-01-20T18:39:27.018Z,47.30
2019-01-20T18:44:32.005Z,46.67
2019-01-20T18:49:36.984Z,43.00
2019-01-20T18:54:41.961Z,44.53
2019-01-20T18:59:46.935Z,43.27
2019-01-20T19:04:53.125Z,45.63
2019-01-20T19:09:58.123Z,46.07
2019-01-20T19:15:03.111Z,46.40
2019-01-20T19:20:09.980Z,48.07
2019-01-20T19:25:15.358Z,50.17
2019-01-20T19:30:23.020Z,48.43
2019-01-20T19:35:28.474Z,53.87
2019-01-20T19:40:33.444Z,47.83
2019-01-20T19:45:38.417Z,50.10
2019-01-20T19:50:43.406Z,49.97
2019-01-20T19:55:48.441Z,50.77
2019-01-20T20:00:53.421Z,51.47
2019-01-20T20:05:58.583Z,52.57
2019-01-20T20:11:03.571Z,50.80
2019-01-20T20:16:08.578Z,58.97
2019-01-20T20:21:13.889Z,53.70
2019-01-20T20:26:18.868Z,49.07
2019-01-20T20:31:23.891Z,49.90
2019-01-20T20:36:28.881Z,49.87
2019-01-20T20:41:33.899Z,51.20
2019-01-20T20:46:38.880Z,51.73
2019-01-20T20:51:43.870Z,53.47
2019-01-20T20:56:48.874Z,51.60
2019-01-20T21:01:53.945Z,52.37
2019-01-20T21:06:58.939Z,50.57
2019-01-20T21:12:04.206Z,50.33
2019-01-20T21:17:09.228Z,45.47
2019-01-20T21:22:14.216Z,44.17
2019-01-20T21:27:19.241Z,45.90
2019-01-20T21:32:24.232Z,44.90
2019-01-20T21:37:29.467Z,52.80
2019-01-20T21:42:34.450Z,52.17
2019-01-20T21:47:39.575Z,50.67
2019-01-20T21:52:44.587Z,50.63
2019-01-20T21:57:49.769Z,54.30
2019-01-20T22:02:54.759Z,57.73
2019-01-20T22:07:59.751Z,53.57
2019-01-20T22:13:04.733Z,49.50
2019-01-20T22:18:09.713Z,49.03
2019-01-20T22:23:14.768Z,48.90
2019-01-20T22:28:19.787Z,48.50
2019-01-20T22:33:25.191Z,48.20
2019-01-20T22:38:30.245Z,51.87
2019-01-20T22:43:35.179Z,51.97
2019-01-20T22:48:40.164Z,46.80
2019-01-20T22:53:45.162Z,50.37
2019-01-20T22:58:51.911Z,50.27
2019-01-20T23:03:56.927Z,53.87
2019-01-20T23:09:06.519Z,55.77
2019-01-20T23:14:08.933Z,50.63
2019-01-20T23:19:13.931Z,49.67
2019-01-20T23:24:18.917Z,50.47
2019-01-20T23:29:23.948Z,52.80
2019-01-20T23:34:28.913Z,52.50
2019-01-20T23:39:33.880Z,51.67
2019-01-20T23:44:38.884Z,55.83
2019-01-20T23:49:43.879Z,48.57
2019-01-20T23:54:48.860Z,49.50
2019-01-20T23:59:53.851Z,47.93
